sensor_id;sensor_type;location;lat;lon;timestamp;temperature;humidity
51982;DHT22;37998;53.416;6.730;2023-02-28T00:01:21;5.40;99.90
51982;DHT22;37998;53.416;6.730;2023-02-28T00:03:47;5.30;99.90
51982;DHT22;37998;53.416;6.730;2023-02-28T00:06:13;5.30;99.90
51982;DHT22;37998;53.416;6.730;2023-02-28T00:08:39;5.30;99.90
51982;DHT22;37998;53.416;6.730;2023-02-28T00:11:07;5.40;99.90
51982;DHT22;37998;53.416;6.730;2023-02-28T00:13:38;5.30;99.90
51982;DHT22;37998;53.416;6.730;2023-02-28T00:16:07;5.30;99.90
51982;DHT22;37998;53.416;6.730;2023-02-28T00:18:33;5.30;99.90
51982;DHT22;37998;53.416;6.730;2023-02-28T00:20:59;5.20;99.90
51982;DHT22;37998;53.416;6.730;2023-02-28T00:23:26;5.30;99.90
51982;DHT22;37998;53.416;6.730;2023-02-28T00:25:52;5.30;99.90
51982;DHT22;37998;53.416;6.730;2023-02-28T00:28:18;5.30;99.90
51982;DHT22;37998;53.416;6.730;2023-02-28T00:30:43;5.30;99.90
51982;DHT22;37998;53.416;6.730;2023-02-28T00:33:09;5.40;99.90
51982;DHT22;37998;53.416;6.730;2023-02-28T00:35:35;5.30;99.90
51982;DHT22;37998;53.416;6.730;2023-02-28T00:38:01;5.30;99.90
51982;DHT22;37998;53.416;6.730;2023-02-28T00:40:28;5.40;99.90
51982;DHT22;37998;53.416;6.730;2023-02-28T00:42:53;5.30;99.90
51982;DHT22;37998;53.416;6.730;2023-02-28T00:45:19;5.30;99.90
51982;DHT22;37998;53.416;6.730;2023-02-28T00:47:44;5.40;99.90
51982;DHT22;37998;53.416;6.730;2023-02-28T00:50:12;5.30;99.90
51982;DHT22;37998;53.416;6.730;2023-02-28T00:52:38;5.30;99.90
51982;DHT22;37998;53.416;6.730;2023-02-28T00:55:04;5.30;99.90
51982;DHT22;37998;53.416;6.730;2023-02-28T00:57:30;5.30;99.90
51982;DHT22;37998;53.416;6.730;2023-02-28T00:59:55;5.30;99.90
51982;DHT22;37998;53.416;6.730;2023-02-28T01:02:22;5.30;99.90
51982;DHT22;37998;53.416;6.730;2023-02-28T01:04:48;5.20;99.90
51982;DHT22;37998;53.416;6.730;2023-02-28T01:07:14;5.30;99.90
51982;DHT22;37998;53.416;6.730;2023-02-28T01:09:41;5.40;99.90
51982;DHT22;37998;53.416;6.730;2023-02-28T01:12:08;5.30;99.90
51982;DHT22;37998;53.416;6.730;2023-02-28T01:14:34;5.30;99.90
51982;DHT22;37998;53.416;6.730;2023-02-28T01:17:00;5.30;99.90
51982;DHT22;37998;53.416;6.730;2023-02-28T01:19:26;5.30;99.90
51982;DHT22;37998;53.416;6.730;2023-02-28T01:21:52;5.40;99.90
51982;DHT22;37998;53.416;6.730;2023-02-28T01:24:17;5.40;99.90
51982;DHT22;37998;53.416;6.730;2023-02-28T01:26:43;5.40;99.90
51982;DHT22;37998;53.416;6.730;2023-02-28T01:29:09;5.40;99.90
51982;DHT22;37998;53.416;6.730;2023-02-28T01:31:35;5.40;99.90
51982;DHT22;37998;53.416;6.730;2023-02-28T01:34:01;5.40;99.90
51982;DHT22;37998;53.416;6.730;2023-02-28T01:36:26;5.50;99.90
51982;DHT22;37998;53.416;6.730;2023-02-28T01:38:52;5.40;99.90
51982;DHT22;37998;53.416;6.730;2023-02-28T01:41:21;5.50;99.90
51982;DHT22;37998;53.416;6.730;2023-02-28T01:46:13;5.50;99.90
51982;DHT22;37998;53.416;6.730;2023-02-28T01:48:51;5.50;99.90
51982;DHT22;37998;53.416;6.730;2023-02-28T01:51:44;5.40;99.90
51982;DHT22;37998;53.416;6.730;2023-02-28T01:54:20;5.40;99.90
51982;DHT22;37998;53.416;6.730;2023-02-28T01:56:54;5.30;99.90
51982;DHT22;37998;53.416;6.730;2023-02-28T01:59:27;5.30;99.90
51982;DHT22;37998;53.416;6.730;2023-02-28T02:01:55;5.20;99.90
51982;DHT22;37998;53.416;6.730;2023-02-28T02:04:23;5.20;99.90
51982;DHT22;37998;53.416;6.730;2023-02-28T02:06:52;5.10;99.90
51982;DHT22;37998;53.416;6.730;2023-02-28T02:09:17;5.10;99.90
51982;DHT22;37998;53.416;6.730;2023-02-28T02:11:45;5.20;99.90
51982;DHT22;37998;53.416;6.730;2023-02-28T02:14:38;5.20;99.90
51982;DHT22;37998;53.416;6.730;2023-02-28T02:30:29;5.30;99.90
51982;DHT22;37998;53.416;6.730;2023-02-28T02:36:21;5.30;99.90
51982;DHT22;37998;53.416;6.730;2023-02-28T02:39:13;5.40;99.90
51982;DHT22;37998;53.416;6.730;2023-02-28T02:41:51;5.40;99.90
51982;DHT22;37998;53.416;6.730;2023-02-28T02:44:25;5.40;99.90
51982;DHT22;37998;53.416;6.730;2023-02-28T02:47:06;5.40;99.90
51982;DHT22;37998;53.416;6.730;2023-02-28T02:49:36;5.40;99.90
51982;DHT22;37998;53.416;6.730;2023-02-28T02:52:06;5.40;99.90
51982;DHT22;37998;53.416;6.730;2023-02-28T02:54:44;5.40;99.90
51982;DHT22;37998;53.416;6.730;2023-02-28T02:57:20;5.40;99.90
51982;DHT22;37998;53.416;6.730;2023-02-28T02:59:50;5.40;99.90
51982;DHT22;37998;53.416;6.730;2023-02-28T03:02:17;5.40;99.90
51982;DHT22;37998;53.416;6.730;2023-02-28T03:04:49;5.40;99.90
51982;DHT22;37998;53.416;6.730;2023-02-28T03:07:16;5.40;99.90
51982;DHT22;37998;53.416;6.730;2023-02-28T03:09:53;5.50;99.90
51982;DHT22;37998;53.416;6.730;2023-02-28T03:12:20;5.40;99.90
51982;DHT22;37998;53.416;6.730;2023-02-28T03:14:55;5.40;99.90
51982;DHT22;37998;53.416;6.730;2023-02-28T03:17:45;5.40;99.90
51982;DHT22;37998;53.416;6.730;2023-02-28T03:20:26;5.40;99.90
51982;DHT22;37998;53.416;6.730;2023-02-28T03:26:07;5.40;99.90
51982;DHT22;37998;53.416;6.730;2023-02-28T03:31:38;5.50;99.90
51982;DHT22;37998;53.416;6.730;2023-02-28T03:34:26;5.50;99.90
51982;DHT22;37998;53.416;6.730;2023-02-28T03:36:59;5.60;99.90
51982;DHT22;37998;53.416;6.730;2023-02-28T03:39:27;5.60;99.90
51982;DHT22;37998;53.416;6.730;2023-02-28T03:41:58;5.60;99.90
51982;DHT22;37998;53.416;6.730;2023-02-28T03:44:30;5.60;99.90
51982;DHT22;37998;53.416;6.730;2023-02-28T03:47:04;5.60;99.90
51982;DHT22;37998;53.416;6.730;2023-02-28T03:49:40;5.60;99.90
51982;DHT22;37998;53.416;6.730;2023-02-28T03:52:09;5.50;99.90
51982;DHT22;37998;53.416;6.730;2023-02-28T03:54:41;5.50;99.90
51982;DHT22;37998;53.416;6.730;2023-02-28T03:59:58;5.50;99.90
51982;DHT22;37998;53.416;6.730;2023-02-28T04:02:25;5.50;99.90
51982;DHT22;37998;53.416;6.730;2023-02-28T04:04:50;5.70;99.90
51982;DHT22;37998;53.416;6.730;2023-02-28T04:07:17;5.60;99.90
51982;DHT22;37998;53.416;6.730;2023-02-28T04:09:43;5.60;99.90
51982;DHT22;37998;53.416;6.730;2023-02-28T04:12:09;5.50;99.90
51982;DHT22;37998;53.416;6.730;2023-02-28T04:14:34;5.40;99.90
51982;DHT22;37998;53.416;6.730;2023-02-28T04:17:00;5.20;99.90
51982;DHT22;37998;53.416;6.730;2023-02-28T04:19:26;5.10;99.90
51982;DHT22;37998;53.416;6.730;2023-02-28T04:21:52;5.00;99.90
51982;DHT22;37998;53.416;6.730;2023-02-28T04:24:21;4.80;99.90
51982;DHT22;37998;53.416;6.730;2023-02-28T04:26:49;4.70;99.90
51982;DHT22;37998;53.416;6.730;2023-02-28T04:29:20;4.70;99.90
51982;DHT22;37998;53.416;6.730;2023-02-28T04:31:46;4.70;99.90
51982;DHT22;37998;53.416;6.730;2023-02-28T04:34:12;4.70;99.90
51982;DHT22;37998;53.416;6.730;2023-02-28T04:36:38;4.60;99.90
51982;DHT22;37998;53.416;6.730;2023-02-28T04:39:03;3.50;99.90
51982;DHT22;37998;53.416;6.730;2023-02-28T04:41:29;4.50;99.90
51982;DHT22;37998;53.416;6.730;2023-02-28T04:43:55;4.50;99.90
51982;DHT22;37998;53.416;6.730;2023-02-28T04:46:22;4.50;99.90
51982;DHT22;37998;53.416;6.730;2023-02-28T04:48:48;4.50;99.90
51982;DHT22;37998;53.416;6.730;2023-02-28T04:51:16;4.50;99.90
51982;DHT22;37998;53.416;6.730;2023-02-28T04:53:43;4.50;99.90
51982;DHT22;37998;53.416;6.730;2023-02-28T04:56:12;4.40;99.90
51982;DHT22;37998;53.416;6.730;2023-02-28T04:58:38;4.50;99.90
51982;DHT22;37998;53.416;6.730;2023-02-28T05:01:26;4.40;99.90
51982;DHT22;37998;53.416;6.730;2023-02-28T05:03:54;4.60;99.90
51982;DHT22;37998;53.416;6.730;2023-02-28T05:06:22;4.40;99.90
51982;DHT22;37998;53.416;6.730;2023-02-28T05:08:49;4.30;99.90
51982;DHT22;37998;53.416;6.730;2023-02-28T05:11:20;4.30;99.90
51982;DHT22;37998;53.416;6.730;2023-02-28T05:13:47;4.30;99.90
51982;DHT22;37998;53.416;6.730;2023-02-28T05:16:14;4.30;99.90
51982;DHT22;37998;53.416;6.730;2023-02-28T05:18:40;4.30;99.90
51982;DHT22;37998;53.416;6.730;2023-02-28T05:21:06;4.20;99.90
51982;DHT22;37998;53.416;6.730;2023-02-28T05:23:43;4.10;99.90
51982;DHT22;37998;53.416;6.730;2023-02-28T05:26:08;4.10;99.90
51982;DHT22;37998;53.416;6.730;2023-02-28T05:28:34;4.10;99.90
51982;DHT22;37998;53.416;6.730;2023-02-28T05:31:00;4.00;99.90
51982;DHT22;37998;53.416;6.730;2023-02-28T05:33:26;4.00;99.90
51982;DHT22;37998;53.416;6.730;2023-02-28T05:35:51;4.00;99.90
51982;DHT22;37998;53.416;6.730;2023-02-28T05:38:17;4.00;99.90
51982;DHT22;37998;53.416;6.730;2023-02-28T05:40:43;4.00;99.90
51982;DHT22;37998;53.416;6.730;2023-02-28T05:43:10;4.10;99.90
51982;DHT22;37998;53.416;6.730;2023-02-28T05:45:36;4.10;99.90
51982;DHT22;37998;53.416;6.730;2023-02-28T05:48:01;4.10;99.90
51982;DHT22;37998;53.416;6.730;2023-02-28T05:50:27;4.10;99.90
51982;DHT22;37998;53.416;6.730;2023-02-28T05:52:53;4.10;99.90
51982;DHT22;37998;53.416;6.730;2023-02-28T05:55:18;4.10;99.90
51982;DHT22;37998;53.416;6.730;2023-02-28T05:57:44;4.20;99.90
51982;DHT22;37998;53.416;6.730;2023-02-28T06:00:11;4.10;99.90
51982;DHT22;37998;53.416;6.730;2023-02-28T06:02:38;4.10;99.90
51982;DHT22;37998;53.416;6.730;2023-02-28T06:05:07;4.20;99.90
51982;DHT22;37998;53.416;6.730;2023-02-28T06:07:34;4.10;99.90
51982;DHT22;37998;53.416;6.730;2023-02-28T06:10:00;4.10;99.90
51982;DHT22;37998;53.416;6.730;2023-02-28T06:12:25;4.00;99.90
51982;DHT22;37998;53.416;6.730;2023-02-28T06:14:51;4.00;99.90
51982;DHT22;37998;53.416;6.730;2023-02-28T06:17:17;4.00;99.90
51982;DHT22;37998;53.416;6.730;2023-02-28T06:19:43;4.00;99.90
51982;DHT22;37998;53.416;6.730;2023-02-28T06:22:08;4.20;99.90
51982;DHT22;37998;53.416;6.730;2023-02-28T06:24:34;4.00;99.90
51982;DHT22;37998;53.416;6.730;2023-02-28T06:27:00;4.10;99.90
51982;DHT22;37998;53.416;6.730;2023-02-28T06:29:33;4.00;99.90
51982;DHT22;37998;53.416;6.730;2023-02-28T06:31:59;4.00;99.90
51982;DHT22;37998;53.416;6.730;2023-02-28T06:34:25;4.00;99.90
51982;DHT22;37998;53.416;6.730;2023-02-28T06:36:51;4.00;99.90
51982;DHT22;37998;53.416;6.730;2023-02-28T06:39:17;4.00;99.90
51982;DHT22;37998;53.416;6.730;2023-02-28T06:41:43;4.10;99.90
51982;DHT22;37998;53.416;6.730;2023-02-28T06:44:15;4.10;99.90
51982;DHT22;37998;53.416;6.730;2023-02-28T06:46:43;4.10;99.90
51982;DHT22;37998;53.416;6.730;2023-02-28T06:49:10;4.10;99.90
51982;DHT22;37998;53.416;6.730;2023-02-28T06:51:38;4.00;99.90
51982;DHT22;37998;53.416;6.730;2023-02-28T06:54:04;4.00;99.90
51982;DHT22;37998;53.416;6.730;2023-02-28T06:56:30;4.00;99.90
51982;DHT22;37998;53.416;6.730;2023-02-28T06:58:56;4.00;99.90
51982;DHT22;37998;53.416;6.730;2023-02-28T07:01:22;4.10;99.90
51982;DHT22;37998;53.416;6.730;2023-02-28T07:03:49;4.00;99.90
51982;DHT22;37998;53.416;6.730;2023-02-28T07:06:22;4.10;99.90
51982;DHT22;37998;53.416;6.730;2023-02-28T07:08:49;4.00;99.90
51982;DHT22;37998;53.416;6.730;2023-02-28T07:11:15;4.00;99.90
51982;DHT22;37998;53.416;6.730;2023-02-28T07:13:41;4.10;99.90
51982;DHT22;37998;53.416;6.730;2023-02-28T07:16:10;4.00;99.90
51982;DHT22;37998;53.416;6.730;2023-02-28T07:18:36;4.00;99.90
51982;DHT22;37998;53.416;6.730;2023-02-28T07:21:04;4.00;99.90
51982;DHT22;37998;53.416;6.730;2023-02-28T07:23:30;4.00;99.90
51982;DHT22;37998;53.416;6.730;2023-02-28T07:25:56;4.00;99.90
51982;DHT22;37998;53.416;6.730;2023-02-28T07:28:21;4.00;99.90
51982;DHT22;37998;53.416;6.730;2023-02-28T07:30:47;4.10;99.90
51982;DHT22;37998;53.416;6.730;2023-02-28T07:33:13;3.80;99.90
51982;DHT22;37998;53.416;6.730;2023-02-28T07:35:39;3.80;99.90
51982;DHT22;37998;53.416;6.730;2023-02-28T07:38:05;4.00;99.90
51982;DHT22;37998;53.416;6.730;2023-02-28T07:40:33;3.70;99.90
51982;DHT22;37998;53.416;6.730;2023-02-28T07:43:00;3.70;99.90
51982;DHT22;37998;53.416;6.730;2023-02-28T07:45:26;3.80;99.90
51982;DHT22;37998;53.416;6.730;2023-02-28T07:47:55;3.60;99.90
51982;DHT22;37998;53.416;6.730;2023-02-28T07:50:21;3.60;99.90
51982;DHT22;37998;53.416;6.730;2023-02-28T07:52:50;3.50;99.90
51982;DHT22;37998;53.416;6.730;2023-02-28T07:55:16;3.60;99.90
51982;DHT22;37998;53.416;6.730;2023-02-28T07:57:42;3.40;99.90
51982;DHT22;37998;53.416;6.730;2023-02-28T08:00:09;3.40;99.90
51982;DHT22;37998;53.416;6.730;2023-02-28T08:02:36;3.50;99.90
51982;DHT22;37998;53.416;6.730;2023-02-28T08:05:02;3.50;99.90
51982;DHT22;37998;53.416;6.730;2023-02-28T08:07:28;3.80;99.90
51982;DHT22;37998;53.416;6.730;2023-02-28T08:09:53;3.60;99.90
51982;DHT22;37998;53.416;6.730;2023-02-28T08:12:19;3.60;99.90
51982;DHT22;37998;53.416;6.730;2023-02-28T08:14:45;3.70;99.90
51982;DHT22;37998;53.416;6.730;2023-02-28T08:17:11;3.70;99.90
51982;DHT22;37998;53.416;6.730;2023-02-28T08:19:37;3.80;99.90
51982;DHT22;37998;53.416;6.730;2023-02-28T08:22:03;4.50;99.90
51982;DHT22;37998;53.416;6.730;2023-02-28T08:24:28;3.80;99.90
51982;DHT22;37998;53.416;6.730;2023-02-28T08:26:55;3.70;99.90
51982;DHT22;37998;53.416;6.730;2023-02-28T08:29:21;3.80;99.90
51982;DHT22;37998;53.416;6.730;2023-02-28T08:31:47;3.80;99.90
51982;DHT22;37998;53.416;6.730;2023-02-28T08:34:14;3.80;99.90
51982;DHT22;37998;53.416;6.730;2023-02-28T08:36:40;3.90;99.90
51982;DHT22;37998;53.416;6.730;2023-02-28T08:39:07;3.90;99.90
51982;DHT22;37998;53.416;6.730;2023-02-28T08:41:33;3.90;99.90
51982;DHT22;37998;53.416;6.730;2023-02-28T08:43:58;4.00;99.90
51982;DHT22;37998;53.416;6.730;2023-02-28T08:46:25;4.10;99.90
51982;DHT22;37998;53.416;6.730;2023-02-28T08:48:55;4.00;99.90
51982;DHT22;37998;53.416;6.730;2023-02-28T08:51:22;4.10;99.90
51982;DHT22;37998;53.416;6.730;2023-02-28T08:54:01;4.20;99.90
51982;DHT22;37998;53.416;6.730;2023-02-28T08:56:28;4.30;99.90
51982;DHT22;37998;53.416;6.730;2023-02-28T08:58:56;4.40;99.90
51982;DHT22;37998;53.416;6.730;2023-02-28T09:01:24;3.20;99.90
51982;DHT22;37998;53.416;6.730;2023-02-28T09:03:51;4.60;99.90
51982;DHT22;37998;53.416;6.730;2023-02-28T09:06:18;4.60;99.90
51982;DHT22;37998;53.416;6.730;2023-02-28T09:08:44;4.80;99.90
51982;DHT22;37998;53.416;6.730;2023-02-28T09:11:10;4.90;99.90
51982;DHT22;37998;53.416;6.730;2023-02-28T09:13:37;4.90;99.90
51982;DHT22;37998;53.416;6.730;2023-02-28T09:16:05;5.00;99.90
51982;DHT22;37998;53.416;6.730;2023-02-28T09:18:33;5.00;99.90
51982;DHT22;37998;53.416;6.730;2023-02-28T09:20:58;5.00;99.90
51982;DHT22;37998;53.416;6.730;2023-02-28T09:23:24;5.00;99.90
51982;DHT22;37998;53.416;6.730;2023-02-28T09:25:52;5.00;99.90
51982;DHT22;37998;53.416;6.730;2023-02-28T09:28:18;5.10;99.90
51982;DHT22;37998;53.416;6.730;2023-02-28T09:30:45;5.10;99.90
51982;DHT22;37998;53.416;6.730;2023-02-28T09:33:12;5.20;99.90
51982;DHT22;37998;53.416;6.730;2023-02-28T09:35:38;5.20;99.90
51982;DHT22;37998;53.416;6.730;2023-02-28T09:38:04;5.20;99.90
51982;DHT22;37998;53.416;6.730;2023-02-28T09:40:30;5.30;99.90
51982;DHT22;37998;53.416;6.730;2023-02-28T09:42:57;5.30;99.90
51982;DHT22;37998;53.416;6.730;2023-02-28T09:45:35;5.50;99.90
51982;DHT22;37998;53.416;6.730;2023-02-28T09:48:08;5.50;99.90
51982;DHT22;37998;53.416;6.730;2023-02-28T09:50:48;5.50;99.90
51982;DHT22;37998;53.416;6.730;2023-02-28T09:53:28;5.60;99.90
51982;DHT22;37998;53.416;6.730;2023-02-28T09:56:03;5.50;99.90
51982;DHT22;37998;53.416;6.730;2023-02-28T10:04:59;5.70;99.90
51982;DHT22;37998;53.416;6.730;2023-02-28T10:07:50;5.90;99.90
51982;DHT22;37998;53.416;6.730;2023-02-28T10:10:46;6.00;99.90
51982;DHT22;37998;53.416;6.730;2023-02-28T10:13:24;6.00;99.90
51982;DHT22;37998;53.416;6.730;2023-02-28T10:15:55;5.90;99.90
51982;DHT22;37998;53.416;6.730;2023-02-28T10:18:26;6.10;99.90
51982;DHT22;37998;53.416;6.730;2023-02-28T10:20:53;5.90;99.90
51982;DHT22;37998;53.416;6.730;2023-02-28T10:23:39;6.10;99.90
51982;DHT22;37998;53.416;6.730;2023-02-28T10:26:16;6.30;99.90
51982;DHT22;37998;53.416;6.730;2023-02-28T10:28:42;6.40;99.90
51982;DHT22;37998;53.416;6.730;2023-02-28T10:31:17;6.50;99.90
51982;DHT22;37998;53.416;6.730;2023-02-28T10:33:43;6.50;99.90
51982;DHT22;37998;53.416;6.730;2023-02-28T10:36:14;6.50;99.90
51982;DHT22;37998;53.416;6.730;2023-02-28T10:38:43;6.50;99.90
51982;DHT22;37998;53.416;6.730;2023-02-28T10:43:35;6.70;99.90
51982;DHT22;37998;53.416;6.730;2023-02-28T10:51:05;6.80;99.90
51982;DHT22;37998;53.416;6.730;2023-02-28T10:53:52;7.00;99.90
51982;DHT22;37998;53.416;6.730;2023-02-28T10:56:25;7.20;99.90
51982;DHT22;37998;53.416;6.730;2023-02-28T11:01:33;7.30;99.90
51982;DHT22;37998;53.416;6.730;2023-02-28T11:04:00;7.20;99.90
51982;DHT22;37998;53.416;6.730;2023-02-28T11:06:29;7.30;99.90
51982;DHT22;37998;53.416;6.730;2023-02-28T11:09:26;7.40;99.90
51982;DHT22;37998;53.416;6.730;2023-02-28T11:11:55;7.40;99.90
51982;DHT22;37998;53.416;6.730;2023-02-28T11:14:27;7.50;99.90
51982;DHT22;37998;53.416;6.730;2023-02-28T11:16:54;7.50;99.90
51982;DHT22;37998;53.416;6.730;2023-02-28T11:19:26;7.60;99.90
51982;DHT22;37998;53.416;6.730;2023-02-28T11:21:58;7.60;99.90
51982;DHT22;37998;53.416;6.730;2023-02-28T11:24:27;7.60;99.90
51982;DHT22;37998;53.416;6.730;2023-02-28T11:26:54;7.70;99.90
51982;DHT22;37998;53.416;6.730;2023-02-28T11:29:24;7.70;99.90
51982;DHT22;37998;53.416;6.730;2023-02-28T11:34:34;7.80;99.90
51982;DHT22;37998;53.416;6.730;2023-02-28T11:37:01;7.80;99.90
51982;DHT22;37998;53.416;6.730;2023-02-28T11:39:31;7.80;99.90
51982;DHT22;37998;53.416;6.730;2023-02-28T11:44:41;7.80;99.90
51982;DHT22;37998;53.416;6.730;2023-02-28T11:47:30;7.90;99.90
51982;DHT22;37998;53.416;6.730;2023-02-28T11:52:59;7.80;99.90
51982;DHT22;37998;53.416;6.730;2023-02-28T12:18:21;7.70;99.90
51982;DHT22;37998;53.416;6.730;2023-02-28T12:20:55;7.80;99.90
51982;DHT22;37998;53.416;6.730;2023-02-28T12:23:57;7.90;99.90
51982;DHT22;37998;53.416;6.730;2023-02-28T12:26:34;8.00;99.90
51982;DHT22;37998;53.416;6.730;2023-02-28T12:29:25;8.10;99.90
51982;DHT22;37998;53.416;6.730;2023-02-28T12:32:18;8.00;99.90
51982;DHT22;37998;53.416;6.730;2023-02-28T12:34:53;7.80;99.90
51982;DHT22;37998;53.416;6.730;2023-02-28T12:37:41;7.50;99.90
51982;DHT22;37998;53.416;6.730;2023-02-28T12:40:16;7.10;99.90
51982;DHT22;37998;53.416;6.730;2023-02-28T12:42:46;7.00;99.90
51982;DHT22;37998;53.416;6.730;2023-02-28T12:45:22;6.80;99.90
51982;DHT22;37998;53.416;6.730;2023-02-28T12:47:57;6.70;99.90
51982;DHT22;37998;53.416;6.730;2023-02-28T12:50:24;6.60;99.90
51982;DHT22;37998;53.416;6.730;2023-02-28T12:53:02;6.50;99.90
51982;DHT22;37998;53.416;6.730;2023-02-28T12:58:22;6.40;99.90
51982;DHT22;37998;53.416;6.730;2023-02-28T13:03:47;6.40;99.90
51982;DHT22;37998;53.416;6.730;2023-02-28T13:06:41;6.30;99.90
51982;DHT22;37998;53.416;6.730;2023-02-28T13:09:11;6.30;99.90
51982;DHT22;37998;53.416;6.730;2023-02-28T13:11:46;6.30;99.90
51982;DHT22;37998;53.416;6.730;2023-02-28T13:14:37;6.30;99.90
51982;DHT22;37998;53.416;6.730;2023-02-28T13:19:46;6.20;99.90
51982;DHT22;37998;53.416;6.730;2023-02-28T13:22:47;6.20;99.90
51982;DHT22;37998;53.416;6.730;2023-02-28T13:27:48;6.30;99.90
51982;DHT22;37998;53.416;6.730;2023-02-28T13:33:32;6.40;99.90
51982;DHT22;37998;53.416;6.730;2023-02-28T13:38:38;6.50;99.90
51982;DHT22;37998;53.416;6.730;2023-02-28T13:44:13;6.60;99.90
51982;DHT22;37998;53.416;6.730;2023-02-28T14:05:36;6.80;99.90
51982;DHT22;37998;53.416;6.730;2023-02-28T14:08:16;6.80;99.90
51982;DHT22;37998;53.416;6.730;2023-02-28T14:10:49;6.80;99.90
51982;DHT22;37998;53.416;6.730;2023-02-28T14:13:39;6.90;99.90
51982;DHT22;37998;53.416;6.730;2023-02-28T14:16:17;6.90;99.90
51982;DHT22;37998;53.416;6.730;2023-02-28T14:18:59;6.80;99.90
51982;DHT22;37998;53.416;6.730;2023-02-28T14:21:33;6.80;99.90
51982;DHT22;37998;53.416;6.730;2023-02-28T14:29:41;6.80;99.90
51982;DHT22;37998;53.416;6.730;2023-02-28T14:32:17;6.70;99.90
51982;DHT22;37998;53.416;6.730;2023-02-28T14:34:54;6.80;99.90
51982;DHT22;37998;53.416;6.730;2023-02-28T14:37:33;6.80;99.90
51982;DHT22;37998;53.416;6.730;2023-02-28T14:40:02;6.70;99.90
51982;DHT22;37998;53.416;6.730;2023-02-28T14:42:35;6.70;99.90
51982;DHT22;37998;53.416;6.730;2023-02-28T14:45:03;6.70;99.90
51982;DHT22;37998;53.416;6.730;2023-02-28T14:47:33;6.70;99.90
51982;DHT22;37998;53.416;6.730;2023-02-28T14:50:02;6.70;99.90
51982;DHT22;37998;53.416;6.730;2023-02-28T14:52:31;6.70;99.90
51982;DHT22;37998;53.416;6.730;2023-02-28T14:55:14;6.70;99.90
51982;DHT22;37998;53.416;6.730;2023-02-28T14:57:50;6.70;99.90
51982;DHT22;37998;53.416;6.730;2023-02-28T15:00:26;6.70;99.90
51982;DHT22;37998;53.416;6.730;2023-02-28T15:02:53;6.70;99.90
51982;DHT22;37998;53.416;6.730;2023-02-28T15:05:37;6.70;99.90
51982;DHT22;37998;53.416;6.730;2023-02-28T15:08:16;6.70;99.90
51982;DHT22;37998;53.416;6.730;2023-02-28T15:10:53;6.70;99.90
51982;DHT22;37998;53.416;6.730;2023-02-28T15:13:21;6.70;99.90
51982;DHT22;37998;53.416;6.730;2023-02-28T15:16:00;6.60;99.90
51982;DHT22;37998;53.416;6.730;2023-02-28T15:18:49;6.60;99.90
51982;DHT22;37998;53.416;6.730;2023-02-28T15:21:27;6.60;99.90
51982;DHT22;37998;53.416;6.730;2023-02-28T15:24:04;6.60;99.90
51982;DHT22;37998;53.416;6.730;2023-02-28T15:26:33;6.60;99.90
51982;DHT22;37998;53.416;6.730;2023-02-28T15:29:06;6.60;99.90
51982;DHT22;37998;53.416;6.730;2023-02-28T15:31:35;6.60;99.90
51982;DHT22;37998;53.416;6.730;2023-02-28T15:34:06;6.80;99.90
51982;DHT22;37998;53.416;6.730;2023-02-28T15:36:34;6.60;99.90
51982;DHT22;37998;53.416;6.730;2023-02-28T15:39:16;6.60;99.90
51982;DHT22;37998;53.416;6.730;2023-02-28T15:41:43;6.60;99.90
51982;DHT22;37998;53.416;6.730;2023-02-28T15:49:27;6.50;99.90
51982;DHT22;37998;53.416;6.730;2023-02-28T15:51:56;6.40;99.90
51982;DHT22;37998;53.416;6.730;2023-02-28T15:54:29;6.40;99.90
51982;DHT22;37998;53.416;6.730;2023-02-28T15:56:58;6.40;99.90
51982;DHT22;37998;53.416;6.730;2023-02-28T15:59:30;6.40;99.90
51982;DHT22;37998;53.416;6.730;2023-02-28T16:02:16;6.30;99.90
51982;DHT22;37998;53.416;6.730;2023-02-28T16:07:26;6.30;99.90
51982;DHT22;37998;53.416;6.730;2023-02-28T16:09:52;6.30;99.90
51982;DHT22;37998;53.416;6.730;2023-02-28T16:12:19;6.20;99.90
51982;DHT22;37998;53.416;6.730;2023-02-28T16:14:47;6.20;99.90
51982;DHT22;37998;53.416;6.730;2023-02-28T16:17:21;6.20;99.90
51982;DHT22;37998;53.416;6.730;2023-02-28T16:19:47;6.20;99.90
51982;DHT22;37998;53.416;6.730;2023-02-28T16:22:13;6.20;99.90
51982;DHT22;37998;53.416;6.730;2023-02-28T16:24:38;6.20;99.90
51982;DHT22;37998;53.416;6.730;2023-02-28T16:27:06;6.00;99.90
51982;DHT22;37998;53.416;6.730;2023-02-28T16:29:35;6.10;99.90
51982;DHT22;37998;53.416;6.730;2023-02-28T16:32:05;6.00;99.90
51982;DHT22;37998;53.416;6.730;2023-02-28T16:34:31;6.00;99.90
51982;DHT22;37998;53.416;6.730;2023-02-28T16:36:57;6.00;99.90
51982;DHT22;37998;53.416;6.730;2023-02-28T16:39:24;5.90;99.90
51982;DHT22;37998;53.416;6.730;2023-02-28T16:41:50;5.80;99.90
51982;DHT22;37998;53.416;6.730;2023-02-28T16:44:30;5.80;99.90
51982;DHT22;37998;53.416;6.730;2023-02-28T16:46:56;5.80;99.90
51982;DHT22;37998;53.416;6.730;2023-02-28T16:49:22;5.80;99.90
51982;DHT22;37998;53.416;6.730;2023-02-28T16:51:48;5.70;99.90
51982;DHT22;37998;53.416;6.730;2023-02-28T16:54:13;5.70;99.90
51982;DHT22;37998;53.416;6.730;2023-02-28T16:56:44;5.70;99.90
51982;DHT22;37998;53.416;6.730;2023-02-28T16:59:11;5.60;99.90
51982;DHT22;37998;53.416;6.730;2023-02-28T17:01:37;5.60;99.90
51982;DHT22;37998;53.416;6.730;2023-02-28T17:04:03;5.60;99.90
51982;DHT22;37998;53.416;6.730;2023-02-28T17:06:30;5.50;99.90
51982;DHT22;37998;53.416;6.730;2023-02-28T17:08:57;5.40;99.90
51982;DHT22;37998;53.416;6.730;2023-02-28T17:11:24;5.40;99.90
51982;DHT22;37998;53.416;6.730;2023-02-28T17:13:50;5.40;99.90
51982;DHT22;37998;53.416;6.730;2023-02-28T17:16:30;5.40;99.90
51982;DHT22;37998;53.416;6.730;2023-02-28T17:19:04;5.30;99.90
51982;DHT22;37998;53.416;6.730;2023-02-28T17:21:31;5.30;99.90
51982;DHT22;37998;53.416;6.730;2023-02-28T17:23:58;5.20;99.90
51982;DHT22;37998;53.416;6.730;2023-02-28T17:26:24;5.10;99.90
51982;DHT22;37998;53.416;6.730;2023-02-28T17:28:52;5.10;99.90
51982;DHT22;37998;53.416;6.730;2023-02-28T17:31:18;5.10;99.90
51982;DHT22;37998;53.416;6.730;2023-02-28T17:33:44;5.00;99.90
51982;DHT22;37998;53.416;6.730;2023-02-28T17:36:26;5.00;99.90
51982;DHT22;37998;53.416;6.730;2023-02-28T17:38:53;4.90;99.90
51982;DHT22;37998;53.416;6.730;2023-02-28T17:41:21;4.80;99.90
51982;DHT22;37998;53.416;6.730;2023-02-28T17:43:46;4.80;99.90
51982;DHT22;37998;53.416;6.730;2023-02-28T17:46:21;4.70;99.90
51982;DHT22;37998;53.416;6.730;2023-02-28T17:48:51;4.70;99.90
51982;DHT22;37998;53.416;6.730;2023-02-28T17:51:18;4.70;99.90
51982;DHT22;37998;53.416;6.730;2023-02-28T17:53:44;4.70;99.90
51982;DHT22;37998;53.416;6.730;2023-02-28T17:56:19;4.60;99.90
51982;DHT22;37998;53.416;6.730;2023-02-28T17:58:45;4.60;99.90
51982;DHT22;37998;53.416;6.730;2023-02-28T18:01:11;4.60;99.90
51982;DHT22;37998;53.416;6.730;2023-02-28T18:03:37;4.60;99.90
51982;DHT22;37998;53.416;6.730;2023-02-28T18:06:03;4.50;99.90
51982;DHT22;37998;53.416;6.730;2023-02-28T18:08:30;4.50;99.90
51982;DHT22;37998;53.416;6.730;2023-02-28T18:10:57;4.50;99.90